Time;durP1;ratioP1;P1;durP2;ratioP2;P2;SDS_P1;SDS_P2;PMS_P1;PMS_P2;Temp;Humidity;BMP_temperature;BMP_pressure;BME280_temperature;BME280_humidity;BME280_pressure;Samples;Min_cycle;Max_cycle;Signal;HPM_P1;HPM_P2
2020/12/12 00:00:28;;;;;;;34.60;19.38;;;3.10;79.30;;;;;;5039611;28;20029;-64
2020/12/12 00:02:54;;;;;;;35.85;18.92;;;3.10;79.30;;;;;;5044071;28;20158;-63
2020/12/12 00:05:20;;;;;;;37.60;19.80;;;3.10;79.30;;;;;;5048326;28;20081;-63
2020/12/12 00:07:45;;;;;;;33.67;17.50;;;3.10;79.30;;;;;;5042849;28;20403;-64
2020/12/12 00:10:11;;;;;;;34.97;19.15;;;3.10;79.30;;;;;;5047055;28;20679;-62
2020/12/12 00:12:37;;;;;;;34.38;18.55;;;3.10;79.50;;;;;;5041059;28;20073;-60
2020/12/12 00:15:04;;;;;;;32.00;17.80;;;3.10;79.50;;;;;;5045787;28;20036;-63
2020/12/12 00:17:30;;;;;;;31.77;17.65;;;3.10;79.60;;;;;;5042436;28;20038;-64
2020/12/12 00:19:55;;;;;;;32.05;17.52;;;3.10;79.70;;;;;;5040352;28;20025;-62
2020/12/12 00:22:21;;;;;;;32.28;17.17;;;3.10;79.70;;;;;;5043969;28;20025;-62
2020/12/12 00:24:47;;;;;;;29.83;16.52;;;3.10;79.70;;;;;;5043815;28;20033;-60
2020/12/12 00:27:12;;;;;;;33.35;17.52;;;3.10;79.70;;;;;;5038078;28;20032;-61
2020/12/12 00:29:38;;;;;;;31.88;17.38;;;3.10;79.70;;;;;;5044690;28;20082;-61
2020/12/12 00:32:04;;;;;;;34.50;18.20;;;3.10;79.60;;;;;;5039358;28;21966;-62
2020/12/12 00:34:30;;;;;;;28.48;15.68;;;3.10;79.60;;;;;;5044946;28;20045;-61
2020/12/12 00:36:56;;;;;;;31.27;16.65;;;3.10;79.60;;;;;;5048461;28;20029;-62
2020/12/12 00:39:22;;;;;;;27.83;15.38;;;3.10;79.50;;;;;;5043993;28;20029;-57
2020/12/12 00:41:49;;;;;;;28.42;15.40;;;3.10;79.50;;;;;;5042854;28;20025;-61
2020/12/12 00:44:15;;;;;;;27.13;15.80;;;3.10;79.50;;;;;;5038132;28;20162;-60
2020/12/12 00:46:42;;;;;;;28.73;15.73;;;3.10;79.50;;;;;;5041779;28;20119;-61
2020/12/12 00:49:09;;;;;;;29.85;16.27;;;3.10;79.50;;;;;;5042014;28;20059;-58
2020/12/12 00:51:35;;;;;;;29.77;15.60;;;3.10;79.30;;;;;;5043310;28;20040;-61
2020/12/12 00:54:00;;;;;;;32.03;16.98;;;3.10;80.20;;;;;;5047926;28;20037;-59
2020/12/12 00:56:26;;;;;;;30.92;16.95;;;3.10;79.30;;;;;;5046204;28;20451;-60
2020/12/12 00:58:52;;;;;;;30.02;16.00;;;3.00;79.20;;;;;;5036218;28;20087;-61
2020/12/12 01:01:19;;;;;;;30.30;16.27;;;3.00;79.30;;;;;;5044278;28;20083;-62
2020/12/12 01:03:45;;;;;;;28.38;16.23;;;3.00;79.50;;;;;;5043766;28;20033;-61
2020/12/12 01:06:19;;;;;;;31.55;16.75;;;3.00;79.50;;;;;;5046151;28;20481;-61
2020/12/12 01:08:46;;;;;;;29.67;16.63;;;3.00;79.50;;;;;;5045923;28;20107;-61
2020/12/12 01:11:13;;;;;;;32.10;17.27;;;3.00;79.50;;;;;;5044778;28;20044;-61
2020/12/12 01:13:39;;;;;;;34.38;17.92;;;3.00;79.70;;;;;;5048312;28;20040;-61
2020/12/12 01:16:09;;;;;;;32.42;17.80;;;3.00;79.70;;;;;;5046712;28;20045;-62
2020/12/12 01:18:35;;;;;;;31.98;17.67;;;2.90;79.70;;;;;;5047399;28;20071;-61
2020/12/12 01:21:01;;;;;;;31.30;17.50;;;3.00;79.70;;;;;;5045788;28;20037;-62
2020/12/12 01:23:27;;;;;;;33.50;18.02;;;2.90;79.80;;;;;;5045513;28;20035;-61
2020/12/12 01:25:53;;;;;;;34.83;18.42;;;2.90;79.90;;;;;;5049739;28;20037;-61
2020/12/12 01:28:20;;;;;;;34.03;17.75;;;2.80;80.00;;;;;;5051131;28;20033;-62
2020/12/12 01:30:48;;;;;;;33.20;18.40;;;2.80;80.00;;;;;;5046113;28;20033;-62
2020/12/12 01:33:14;;;;;;;34.05;18.42;;;2.80;80.10;;;;;;5046263;28;20047;-58
2020/12/12 01:35:39;;;;;;;34.90;18.55;;;2.80;80.20;;;;;;5043235;28;20040;-62
2020/12/12 01:38:05;;;;;;;33.88;18.48;;;2.70;80.40;;;;;;5049242;28;20017;-61
2020/12/12 01:40:31;;;;;;;32.33;17.58;;;2.80;80.50;;;;;;5044314;28;20067;-57
2020/12/12 01:42:56;;;;;;;34.28;17.92;;;2.70;80.60;;;;;;5047447;28;20068;-62
2020/12/12 01:45:22;;;;;;;32.25;16.92;;;2.80;80.70;;;;;;5047125;28;20124;-61
2020/12/12 01:47:48;;;;;;;32.53;17.50;;;2.70;80.80;;;;;;5044534;28;20445;-61
2020/12/12 01:50:14;;;;;;;35.03;18.48;;;2.80;81.00;;;;;;5045871;28;20040;-59
2020/12/12 01:52:40;;;;;;;32.88;17.63;;;2.80;81.00;;;;;;5044026;28;21706;-61
2020/12/12 01:55:06;;;;;;;34.90;18.73;;;2.90;81.00;;;;;;5045505;28;20246;-61
2020/12/12 01:57:31;;;;;;;34.47;18.88;;;2.90;80.90;;;;;;5046574;28;20112;-61
2020/12/12 01:59:57;;;;;;;34.47;17.90;;;3.00;80.90;;;;;;5040983;28;20518;-61
2020/12/12 02:02:23;;;;;;;34.30;17.98;;;2.90;80.60;;;;;;5045208;28;20022;-60
2020/12/12 02:04:55;;;;;;;34.45;18.00;;;2.90;80.60;;;;;;5045372;28;20036;-62
2020/12/12 02:07:22;;;;;;;33.85;17.65;;;3.00;80.60;;;;;;5050387;28;20094;-61
2020/12/12 02:09:49;;;;;;;32.63;17.15;;;3.00;80.60;;;;;;5033745;28;20163;-62
2020/12/12 02:12:16;;;;;;;35.38;18.13;;;3.00;80.40;;;;;;5043497;28;20033;-62
2020/12/12 02:14:42;;;;;;;31.50;16.80;;;2.90;80.40;;;;;;5046162;28;20112;-62
2020/12/12 02:17:09;;;;;;;32.88;17.05;;;2.90;80.60;;;;;;5046189;28;20055;-61
2020/12/12 02:19:36;;;;;;;32.83;18.15;;;3.00;80.70;;;;;;5041571;28;20029;-62
2020/12/12 02:22:05;;;;;;;30.10;16.75;;;3.00;80.70;;;;;;5041888;28;20033;-61
2020/12/12 02:24:33;;;;;;;33.92;17.67;;;3.00;80.70;;;;;;5025953;28;20029;-61
2020/12/12 02:27:03;;;;;;;32.13;17.42;;;3.00;80.60;;;;;;5042265;28;20041;-60
2020/12/12 02:29:41;;;;;;;30.77;16.85;;;3.00;80.40;;;;;;5045615;28;20041;-62
2020/12/12 02:32:07;;;;;;;33.13;17.52;;;3.00;80.40;;;;;;5043331;28;20440;-62
2020/12/12 02:34:33;;;;;;;29.65;15.65;;;3.10;80.40;;;;;;5044851;28;20036;-61
2020/12/12 02:36:59;;;;;;;31.90;16.40;;;3.10;80.40;;;;;;5042509;28;21432;-62
2020/12/12 02:39:25;;;;;;;31.20;16.85;;;3.10;80.30;;;;;;5047171;28;20028;-62
2020/12/12 02:41:50;;;;;;;31.55;17.05;;;3.10;80.20;;;;;;5047229;28;20037;-62
2020/12/12 02:44:16;;;;;;;32.13;17.10;;;3.10;80.10;;;;;;5046539;28;20031;-61
2020/12/12 02:46:41;;;;;;;32.13;16.42;;;3.10;80.00;;;;;;5047821;28;20048;-61
2020/12/12 02:49:07;;;;;;;31.48;17.42;;;3.10;80.00;;;;;;5047145;28;20056;-57
2020/12/12 02:51:38;;;;;;;30.83;16.75;;;3.10;79.90;;;;;;5044812;28;20515;-62
2020/12/12 02:54:04;;;;;;;33.58;17.55;;;3.10;80.00;;;;;;5047957;28;20037;-59
2020/12/12 02:56:29;;;;;;;31.05;15.98;;;3.10;80.00;;;;;;5042648;28;20086;-61
2020/12/12 02:58:55;;;;;;;30.33;15.98;;;3.10;80.00;;;;;;5044605;28;20560;-61
2020/12/12 03:01:21;;;;;;;33.03;16.73;;;3.10;80.10;;;;;;5044131;28;20048;-62
2020/12/12 03:03:46;;;;;;;30.92;17.50;;;3.10;80.00;;;;;;5045160;28;20029;-61
2020/12/12 03:06:12;;;;;;;31.92;16.48;;;3.10;80.00;;;;;;5049192;28;20032;-62
2020/12/12 03:08:37;;;;;;;33.40;16.83;;;3.10;80.10;;;;;;5047260;28;20033;-61
2020/12/12 03:11:03;;;;;;;28.52;15.95;;;3.10;80.00;;;;;;5042819;28;20338;-62
2020/12/12 03:13:29;;;;;;;31.63;17.08;;;3.10;79.90;;;;;;5046001;28;20032;-62
2020/12/12 03:15:54;;;;;;;31.35;16.65;;;3.10;79.90;;;;;;5047574;28;20033;-61
2020/12/12 03:18:20;;;;;;;31.50;17.00;;;3.10;79.70;;;;;;5045903;28;20119;-62
2020/12/12 03:20:45;;;;;;;31.00;17.02;;;3.10;79.80;;;;;;5037158;28;20065;-61
2020/12/12 03:23:11;;;;;;;33.05;17.38;;;3.10;79.90;;;;;;5044064;28;20025;-62
2020/12/12 03:25:38;;;;;;;30.08;16.80;;;3.10;79.90;;;;;;5042098;28;20130;-62
2020/12/12 03:28:04;;;;;;;34.30;17.48;;;3.00;80.00;;;;;;5043525;28;20408;-61
2020/12/12 03:30:29;;;;;;;31.55;16.38;;;3.00;80.10;;;;;;5044669;28;20108;-61
2020/12/12 03:32:55;;;;;;;32.05;17.13;;;3.10;80.20;;;;;;5046420;28;20488;-61
2020/12/12 03:35:21;;;;;;;31.27;17.27;;;3.00;80.00;;;;;;5041773;28;20112;-61
2020/12/12 03:37:46;;;;;;;32.25;17.23;;;3.10;80.00;;;;;;5047441;28;20025;-61
2020/12/12 03:40:12;;;;;;;32.55;16.98;;;3.10;80.00;;;;;;5041664;28;20044;-61
2020/12/12 03:42:37;;;;;;;32.25;17.50;;;3.10;80.10;;;;;;5044049;28;20033;-61
2020/12/12 03:45:03;;;;;;;33.63;17.85;;;3.10;80.20;;;;;;5047162;28;20104;-60
2020/12/12 03:47:29;;;;;;;28.60;16.10;;;3.10;81.00;;;;;;5047824;28;20033;-62
2020/12/12 03:49:54;;;;;;;32.72;17.02;;;3.10;80.20;;;;;;5043900;28;20371;-62
2020/12/12 03:52:20;;;;;;;29.35;15.73;;;3.00;80.20;;;;;;5039938;28;20059;-62
2020/12/12 03:54:45;;;;;;;33.53;17.52;;;3.10;80.30;;;;;;5043224;28;20036;-61
2020/12/12 03:57:12;;;;;;;32.47;16.73;;;3.10;80.30;;;;;;5044252;28;20490;-62
2020/12/12 03:59:38;;;;;;;32.03;16.85;;;3.10;80.20;;;;;;5041166;28;20120;-61
2020/12/12 04:02:03;;;;;;;33.08;16.98;;;3.10;80.20;;;;;;5037369;28;20120;-62
2020/12/12 04:04:29;;;;;;;35.17;18.20;;;3.10;80.10;;;;;;5041760;28;20384;-60
2020/12/12 04:06:55;;;;;;;35.92;18.42;;;3.10;80.00;;;;;;5045317;28;20045;-61
2020/12/12 04:09:20;;;;;;;35.10;18.17;;;3.10;80.00;;;;;;5046075;28;20108;-62
2020/12/12 04:11:46;;;;;;;34.00;18.60;;;3.10;79.90;;;;;;5041622;28;20090;-61
2020/12/12 04:14:11;;;;;;;34.05;18.15;;;3.10;80.00;;;;;;5047424;28;20040;-61
2020/12/12 04:16:37;;;;;;;38.80;19.52;;;3.00;79.90;;;;;;5045322;28;20032;-61
2020/12/12 04:19:03;;;;;;;52.33;21.92;;;3.00;80.00;;;;;;5045725;28;20528;-61
2020/12/12 04:21:29;;;;;;;36.95;18.35;;;3.00;80.10;;;;;;5043219;28;20061;-61
2020/12/12 04:23:54;;;;;;;38.15;18.90;;;3.00;80.20;;;;;;5043679;28;20029;-62
2020/12/12 04:26:20;;;;;;;31.42;17.40;;;2.90;80.20;;;;;;5046527;28;20036;-62
2020/12/12 04:28:45;;;;;;;40.20;18.63;;;2.90;80.40;;;;;;5040256;28;20059;-62
2020/12/12 04:31:11;;;;;;;35.17;18.52;;;2.90;80.50;;;;;;5044918;28;20056;-62
2020/12/12 04:33:37;;;;;;;33.25;16.95;;;2.90;80.70;;;;;;5047711;28;20030;-61
2020/12/12 04:36:04;;;;;;;34.53;18.30;;;2.90;80.80;;;;;;5043589;28;20033;-61
2020/12/12 04:38:31;;;;;;;35.65;18.90;;;2.90;80.80;;;;;;5038911;28;20029;-61
2020/12/12 04:40:58;;;;;;;35.15;18.73;;;2.90;80.90;;;;;;5036747;28;20060;-62
2020/12/12 04:43:25;;;;;;;33.78;18.23;;;2.90;81.00;;;;;;5044530;28;20029;-61
2020/12/12 04:45:52;;;;;;;32.45;17.13;;;2.90;81.10;;;;;;5050609;28;20084;-61
2020/12/12 04:48:18;;;;;;;32.70;17.67;;;2.90;81.20;;;;;;5045594;28;20025;-61
2020/12/12 04:50:44;;;;;;;30.77;17.70;;;2.90;81.30;;;;;;5044832;28;20070;-62
2020/12/12 04:53:15;;;;;;;32.67;17.13;;;2.90;81.30;;;;;;5049105;28;20491;-61
2020/12/12 04:56:04;;;;;;;32.88;17.48;;;2.90;81.50;;;;;;5047757;28;20133;-62
2020/12/12 04:58:30;;;;;;;31.63;16.90;;;2.90;81.80;;;;;;5046561;28;20021;-61
2020/12/12 05:00:56;;;;;;;31.52;16.45;;;2.90;81.40;;;;;;5050132;28;20637;-60
2020/12/12 05:03:24;;;;;;;33.10;16.35;;;2.90;81.50;;;;;;5069773;22;20775;-67
2020/12/12 05:05:50;;;;;;;32.25;16.38;;;2.90;81.60;;;;;;5050090;28;20729;-68
2020/12/12 05:08:16;;;;;;;31.80;16.02;;;2.90;81.80;;;;;;5051057;28;20119;-68
2020/12/12 05:10:48;;;;;;;32.85;16.67;;;2.90;81.90;;;;;;5028682;28;20103;-68
2020/12/12 05:13:16;;;;;;;29.05;15.25;;;2.90;82.00;;;;;;5030968;28;20035;-68
2020/12/12 05:15:42;;;;;;;31.17;16.60;;;2.90;82.10;;;;;;5029892;28;20033;-68
2020/12/12 05:18:08;;;;;;;29.52;16.40;;;3.00;82.10;;;;;;5012937;28;20112;-68
2020/12/12 05:20:34;;;;;;;31.35;16.35;;;3.00;82.30;;;;;;5030010;28;20404;-68
2020/12/12 05:22:59;;;;;;;30.52;16.83;;;3.00;82.30;;;;;;5014262;28;20033;-68
2020/12/12 05:25:26;;;;;;;32.25;18.42;;;3.00;82.40;;;;;;5026750;28;20056;-68
2020/12/12 05:27:53;;;;;;;28.27;15.80;;;3.00;82.50;;;;;;5030306;28;20033;-68
2020/12/12 05:30:20;;;;;;;30.00;16.17;;;3.10;82.60;;;;;;5029687;28;20025;-68
2020/12/12 05:32:47;;;;;;;28.00;15.15;;;3.10;82.60;;;;;;5027910;28;20033;-68
2020/12/12 05:35:13;;;;;;;25.40;14.60;;;3.10;82.60;;;;;;5030710;28;20039;-68
2020/12/12 05:37:40;;;;;;;26.30;14.85;;;3.10;82.60;;;;;;5027384;28;20025;-68
2020/12/12 05:40:06;;;;;;;27.60;14.38;;;3.20;82.70;;;;;;5032925;28;20583;-68
2020/12/12 05:42:34;;;;;;;27.25;14.48;;;3.20;82.80;;;;;;5009779;28;20109;-69
2020/12/12 05:45:02;;;;;;;27.00;14.63;;;3.20;82.90;;;;;;5030331;28;20026;-69
2020/12/12 05:47:29;;;;;;;24.17;14.13;;;3.20;82.80;;;;;;5030639;28;20116;-68
2020/12/12 05:49:54;;;;;;;27.60;15.13;;;3.20;82.90;;;;;;5010820;28;20033;-68
2020/12/12 05:52:21;;;;;;;26.02;14.70;;;3.30;83.00;;;;;;5010427;28;20022;-69
2020/12/12 05:54:49;;;;;;;26.65;14.68;;;3.30;82.90;;;;;;5028848;28;20041;-68
2020/12/12 05:57:15;;;;;;;26.95;14.68;;;3.30;83.00;;;;;;5029545;28;20044;-68
2020/12/12 05:59:41;;;;;;;26.83;14.70;;;3.30;83.00;;;;;;5029632;28;20053;-69
2020/12/12 06:02:13;;;;;;;30.40;15.85;;;3.30;83.00;;;;;;5026131;28;20128;-68
2020/12/12 06:04:49;;;;;;;27.38;14.93;;;3.40;83.10;;;;;;5014183;28;20114;-68
2020/12/12 06:07:30;;;;;;;29.30;16.15;;;3.30;84.00;;;;;;5031308;28;20120;-69
2020/12/12 06:10:02;;;;;;;27.48;15.02;;;3.40;83.20;;;;;;5028194;28;20039;-69
2020/12/12 06:12:28;;;;;;;28.83;15.32;;;3.40;83.10;;;;;;5026898;28;20036;-69
2020/12/12 06:14:58;;;;;;;27.58;15.43;;;3.40;83.10;;;;;;5023437;28;20049;-68
2020/12/12 06:17:41;;;;;;;30.35;17.10;;;3.40;84.00;;;;;;5005614;28;20042;-69
2020/12/12 06:20:07;;;;;;;28.92;16.27;;;3.50;83.60;;;;;;5031688;28;20029;-69
2020/12/12 06:22:32;;;;;;;28.27;16.67;;;3.50;83.20;;;;;;5007143;28;20642;-69
2020/12/12 06:25:03;;;;;;;30.17;15.93;;;3.50;83.30;;;;;;5027956;28;20034;-70
2020/12/12 06:27:51;;;;;;;29.17;16.35;;;3.50;83.30;;;;;;5031371;28;20578;-70
2020/12/12 06:30:19;;;;;;;29.50;15.90;;;3.50;83.70;;;;;;5020792;28;20041;-69
2020/12/12 06:32:45;;;;;;;26.88;15.68;;;3.50;83.30;;;;;;5026996;28;20030;-69
2020/12/12 06:35:14;;;;;;;26.08;14.68;;;3.60;83.30;;;;;;5022351;28;20036;-70
2020/12/12 06:37:40;;;;;;;29.35;16.38;;;3.60;83.30;;;;;;5006760;28;20510;-69
2020/12/12 06:40:15;;;;;;;27.98;15.88;;;3.60;83.20;;;;;;5013191;28;20400;-70
2020/12/12 06:42:41;;;;;;;;;;;3.70;83.20;;;;;;5023302;28;20033;-69
2020/12/12 06:45:13;;;;;;;33.45;17.63;;;3.70;83.80;;;;;;5013970;28;19913;-70
2020/12/12 06:47:44;;;;;;;33.47;18.42;;;3.70;83.10;;;;;;5004776;28;20037;-69
2020/12/12 06:50:20;;;;;;;29.27;17.50;;;3.70;83.20;;;;;;5007805;28;20392;-70
2020/12/12 06:52:47;;;;;;;31.73;17.27;;;3.70;83.30;;;;;;5026226;28;20030;-70
2020/12/12 06:55:14;;;;;;;32.10;17.50;;;3.80;83.20;;;;;;5027950;28;20030;-70
2020/12/12 06:57:45;;;;;;;31.00;16.40;;;3.80;83.20;;;;;;5019963;28;20042;-70
2020/12/12 07:00:32;;;;;;;27.42;14.88;;;3.80;83.20;;;;;;5027272;28;20033;-70
2020/12/12 07:02:59;;;;;;;27.52;15.85;;;3.80;83.40;;;;;;5021983;28;20548;-69
2020/12/12 07:05:28;;;;;;;30.73;18.48;;;3.90;83.20;;;;;;5000738;28;20041;-69
2020/12/12 07:07:57;;;;;;;30.55;17.98;;;3.90;83.20;;;;;;5027128;28;20523;-69
2020/12/12 07:10:23;;;;;;;30.23;17.42;;;3.90;83.10;;;;;;5023720;28;20044;-69
2020/12/12 07:12:48;;;;;;;30.05;17.13;;;3.90;83.00;;;;;;5010807;28;20098;-69
2020/12/12 07:15:14;;;;;;;30.60;16.98;;;4.00;83.00;;;;;;5026890;28;20032;-70
2020/12/12 07:17:40;;;;;;;28.98;16.80;;;4.00;82.90;;;;;;5024978;28;20629;-70
2020/12/12 07:20:07;;;;;;;31.05;17.83;;;4.00;82.80;;;;;;5028772;28;20038;-69
2020/12/12 07:22:34;;;;;;;29.35;16.17;;;4.00;83.60;;;;;;5025834;28;20029;-69
2020/12/12 07:25:00;;;;;;;30.70;16.13;;;4.10;82.80;;;;;;5022604;28;20025;-70
2020/12/12 07:27:26;;;;;;;27.48;15.23;;;4.10;82.80;;;;;;5027819;28;20036;-72
2020/12/12 07:29:51;;;;;;;25.73;14.65;;;4.10;82.80;;;;;;5024613;28;20034;-69
2020/12/12 07:32:17;;;;;;;28.65;16.60;;;4.10;82.90;;;;;;5026331;28;20034;-68
2020/12/12 07:34:43;;;;;;;29.05;16.75;;;4.10;82.90;;;;;;5008087;28;20072;-69
2020/12/12 07:37:13;;;;;;;30.80;16.98;;;4.10;82.90;;;;;;5025081;28;20045;-69
2020/12/12 07:39:42;;;;;;;33.28;17.50;;;4.10;82.20;;;;;;5007995;28;20037;-70
2020/12/12 07:42:11;;;;;;;24.27;13.98;;;4.10;83.10;;;;;;5027371;28;20040;-70
2020/12/12 07:44:39;;;;;;;24.35;14.23;;;4.10;83.10;;;;;;5026349;28;20414;-70
2020/12/12 07:47:07;;;;;;;22.58;13.10;;;4.10;83.10;;;;;;5028426;28;20037;-69
2020/12/12 07:49:35;;;;;;;23.70;12.82;;;4.20;83.20;;;;;;5006565;28;20033;-69
2020/12/12 07:52:05;;;;;;;23.25;13.32;;;4.20;83.20;;;;;;5011847;28;20057;-69
2020/12/12 07:54:33;;;;;;;21.08;13.18;;;4.20;83.10;;;;;;5009215;28;20061;-69
2020/12/12 07:56:59;;;;;;;21.10;12.18;;;4.20;83.00;;;;;;5010577;28;20314;-69
2020/12/12 07:59:25;;;;;;;27.17;13.15;;;4.20;83.00;;;;;;5027731;28;20091;-70
2020/12/12 08:01:50;;;;;;;22.13;12.77;;;4.30;83.10;;;;;;5009704;28;20038;-70
2020/12/12 08:04:21;;;;;;;21.50;11.95;;;4.30;83.10;;;;;;5027112;28;20061;-70
2020/12/12 08:06:46;;;;;;;20.95;11.95;;;4.20;83.00;;;;;;5025095;28;20038;-68
2020/12/12 08:09:17;;;;;;;23.00;12.00;;;4.30;83.10;;;;;;5005167;28;20038;-70
2020/12/12 08:11:43;;;;;;;23.27;12.93;;;4.30;83.20;;;;;;5018644;28;20038;-70
2020/12/12 08:14:09;;;;;;;21.45;12.02;;;4.30;83.10;;;;;;5018183;28;20403;-71
2020/12/12 08:16:43;;;;;;;24.13;12.98;;;4.30;83.10;;;;;;5022157;28;20037;-71
2020/12/12 08:19:09;;;;;;;22.40;13.23;;;4.40;83.20;;;;;;5025218;28;20037;-71
2020/12/12 08:21:36;;;;;;;22.35;12.25;;;4.40;83.10;;;;;;5026574;28;20107;-71
2020/12/12 08:24:05;;;;;;;21.52;11.98;;;4.40;83.00;;;;;;5021775;28;20029;-71
2020/12/12 08:26:32;;;;;;;21.92;11.95;;;4.50;83.10;;;;;;5026098;28;20125;-69
2020/12/12 08:29:02;;;;;;;19.77;11.50;;;4.50;83.00;;;;;;5024542;28;20026;-71
2020/12/12 08:31:35;;;;;;;22.23;13.18;;;4.50;83.00;;;;;;5023884;28;20025;-70
2020/12/12 08:34:00;;;;;;;22.98;12.20;;;4.60;83.00;;;;;;5007581;28;20479;-71
2020/12/12 08:36:28;;;;;;;25.75;12.38;;;4.60;82.90;;;;;;5026654;28;20049;-70
2020/12/12 08:38:56;;;;;;;20.38;12.15;;;4.60;82.80;;;;;;5021486;28;20025;-70
2020/12/12 08:41:31;;;;;;;21.38;11.27;;;4.60;82.80;;;;;;5023389;28;20512;-70
2020/12/12 08:43:57;;;;;;;20.02;11.02;;;4.60;82.80;;;;;;5024599;28;20040;-71
2020/12/12 08:46:23;;;;;;;21.17;11.77;;;4.60;82.80;;;;;;5025280;28;20516;-71
2020/12/12 08:48:50;;;;;;;26.40;15.13;;;4.60;82.80;;;;;;5024791;28;20126;-69
2020/12/12 08:51:40;;;;;;;20.35;12.13;;;4.60;82.70;;;;;;5024747;28;20521;-72
2020/12/12 08:54:11;;;;;;;17.17;10.52;;;4.70;82.70;;;;;;5025701;28;20108;-72
2020/12/12 08:56:37;;;;;;;19.42;11.90;;;4.70;82.60;;;;;;5005144;28;20038;-71
2020/12/12 08:59:06;;;;;;;20.38;11.55;;;4.70;82.60;;;;;;5026865;28;20528;-70
2020/12/12 09:01:33;;;;;;;18.30;10.65;;;4.70;83.50;;;;;;5022393;28;20113;-71
2020/12/12 09:04:09;;;;;;;21.42;12.55;;;4.70;83.50;;;;;;5009202;28;20405;-71
2020/12/12 09:06:41;;;;;;;20.70;11.30;;;4.80;82.60;;;;;;5005803;28;20107;-70
2020/12/12 09:09:08;;;;;;;19.70;11.60;;;4.80;83.50;;;;;;5024187;28;20061;-70
2020/12/12 09:11:34;;;;;;;18.67;10.93;;;4.80;82.60;;;;;;5021126;28;20547;-69
2020/12/12 09:14:01;;;;;;;18.35;10.52;;;4.80;82.60;;;;;;5018794;28;20120;-69
2020/12/12 09:16:27;;;;;;;20.90;11.32;;;4.80;82.70;;;;;;5023857;28;20038;-69
2020/12/12 09:18:52;;;;;;;22.65;12.25;;;4.80;82.80;;;;;;5026657;28;20057;-69
2020/12/12 09:21:19;;;;;;;21.65;12.20;;;4.80;82.80;;;;;;5023369;28;20096;-69
2020/12/12 09:23:44;;;;;;;21.33;12.10;;;4.80;82.80;;;;;;5012760;28;20333;-70
2020/12/12 09:26:10;;;;;;;25.35;13.15;;;4.80;82.80;;;;;;5006323;28;20600;-70
2020/12/12 09:28:36;;;;;;;26.38;14.48;;;4.90;83.00;;;;;;5002523;28;20029;-67
2020/12/12 09:31:04;;;;;;;24.20;13.10;;;4.90;83.00;;;;;;5020013;28;20037;-69
2020/12/12 09:33:30;;;;;;;21.45;11.52;;;4.90;82.90;;;;;;5006373;28;20133;-68
2020/12/12 09:35:55;;;;;;;18.35;11.23;;;4.90;82.80;;;;;;5004946;28;21856;-68
2020/12/12 09:38:21;;;;;;;19.77;11.23;;;4.90;82.80;;;;;;5021161;28;20037;-68
2020/12/12 09:40:51;;;;;;;16.73;9.82;;;4.90;82.70;;;;;;5022162;28;20052;-69
2020/12/12 09:43:18;;;;;;;17.10;9.95;;;4.90;82.80;;;;;;5022039;28;20040;-69
2020/12/12 09:45:46;;;;;;;16.33;10.27;;;4.90;82.70;;;;;;5022565;28;20044;-69
2020/12/12 09:48:13;;;;;;;29.73;18.73;;;4.90;82.70;;;;;;5023145;28;20322;-70
2020/12/12 09:50:39;;;;;;;27.90;16.42;;;4.90;82.70;;;;;;5020894;28;20060;-70
2020/12/12 09:53:07;;;;;;;20.95;12.40;;;4.90;82.80;;;;;;5023349;28;20125;-69
2020/12/12 09:55:37;;;;;;;17.25;10.70;;;5.00;82.80;;;;;;5023975;28;20088;-69
2020/12/12 09:58:06;;;;;;;17.45;10.60;;;5.00;82.90;;;;;;5019519;28;20030;-69
2020/12/12 10:00:36;;;;;;;19.05;10.40;;;5.00;82.90;;;;;;5017866;28;20083;-68
2020/12/12 10:03:03;;;;;;;17.35;10.80;;;5.00;82.90;;;;;;5021161;28;20439;-67
2020/12/12 10:05:29;;;;;;;15.57;10.50;;;5.00;82.90;;;;;;5003117;28;20029;-68
2020/12/12 10:07:58;;;;;;;19.60;12.32;;;5.00;83.00;;;;;;5040040;22;20041;-70
2020/12/12 10:10:25;;;;;;;18.42;11.00;;;5.00;83.00;;;;;;5022719;28;20067;-70
2020/12/12 10:12:51;;;;;;;18.25;11.50;;;5.00;83.00;;;;;;5025441;28;20758;-70
2020/12/12 10:15:18;;;;;;;17.17;10.70;;;5.00;83.10;;;;;;5008505;28;20037;-70
2020/12/12 10:17:47;;;;;;;18.77;10.63;;;5.00;83.10;;;;;;5025881;28;20046;-69
2020/12/12 10:20:13;;;;;;;16.23;10.02;;;5.00;83.10;;;;;;5067839;22;20043;-65
2020/12/12 10:22:39;;;;;;;18.50;11.60;;;4.90;83.00;;;;;;5061989;28;20032;-65
2020/12/12 10:25:06;;;;;;;21.77;14.02;;;4.90;83.10;;;;;;5058296;28;20063;-66
2020/12/12 10:27:32;;;;;;;19.60;12.65;;;5.00;83.20;;;;;;5063001;28;20041;-66
2020/12/12 10:29:58;;;;;;;18.52;12.10;;;4.90;83.30;;;;;;5056719;28;20131;-65
2020/12/12 10:32:23;;;;;;;18.48;10.50;;;4.90;83.40;;;;;;5059463;28;20512;-66
2020/12/12 10:34:49;;;;;;;18.00;10.70;;;4.90;83.50;;;;;;5057531;28;20032;-66
2020/12/12 10:37:14;;;;;;;18.48;10.60;;;5.00;83.50;;;;;;5066185;28;20230;-66
2020/12/12 10:39:48;;;;;;;17.25;11.10;;;5.00;83.50;;;;;;5065525;28;20041;-66
2020/12/12 10:42:14;;;;;;;14.07;8.93;;;5.00;83.60;;;;;;5070259;28;20029;-66
2020/12/12 10:44:39;;;;;;;14.40;9.50;;;5.00;83.60;;;;;;5069775;28;20035;-66
2020/12/12 10:47:05;;;;;;;15.68;9.43;;;5.10;84.60;;;;;;5069701;28;20052;-66
2020/12/12 10:49:30;;;;;;;16.85;9.90;;;5.10;83.70;;;;;;5069268;28;20636;-66
2020/12/12 10:51:56;;;;;;;16.50;10.05;;;5.10;83.70;;;;;;5069346;28;20032;-66
2020/12/12 10:54:26;;;;;;;16.15;9.85;;;5.10;83.70;;;;;;5068516;28;20070;-66
2020/12/12 10:56:52;;;;;;;13.88;9.23;;;5.20;83.80;;;;;;5069762;28;20526;-66
2020/12/12 10:59:17;;;;;;;16.42;9.25;;;5.20;83.70;;;;;;5068957;28;20060;-66
2020/12/12 11:01:43;;;;;;;14.07;9.02;;;5.30;84.70;;;;;;5069209;28;20040;-67
2020/12/12 11:04:09;;;;;;;15.77;9.73;;;5.30;83.80;;;;;;5067515;28;20043;-66
2020/12/12 11:06:34;;;;;;;15.63;9.65;;;5.30;83.80;;;;;;5070005;28;20103;-66
2020/12/12 11:09:01;;;;;;;16.33;10.18;;;5.30;84.70;;;;;;5067027;28;20557;-65
2020/12/12 11:11:27;;;;;;;14.35;9.40;;;5.40;83.80;;;;;;5065967;28;20028;-66
2020/12/12 11:13:53;;;;;;;14.40;8.52;;;5.40;83.70;;;;;;5064293;28;20094;-67
2020/12/12 11:16:22;;;;;;;12.98;8.43;;;5.50;83.80;;;;;;5068604;28;20067;-66
2020/12/12 11:18:50;;;;;;;14.65;9.07;;;5.50;83.60;;;;;;5067112;28;20533;-67
2020/12/12 11:21:20;;;;;;;16.77;11.05;;;5.50;83.50;;;;;;5066230;28;20039;-65
2020/12/12 11:23:46;;;;;;;23.55;14.48;;;5.50;83.60;;;;;;5060975;28;20025;-65
2020/12/12 11:26:12;;;;;;;18.52;11.68;;;5.60;83.50;;;;;;5060734;28;20381;-66
2020/12/12 11:28:39;;;;;;;16.73;10.13;;;5.50;83.30;;;;;;5064673;28;20024;-66
2020/12/12 11:31:05;;;;;;;15.05;9.82;;;5.60;83.30;;;;;;5064092;28;20029;-63
2020/12/12 11:33:31;;;;;;;17.20;10.50;;;5.50;83.30;;;;;;5058164;28;20040;-66
2020/12/12 11:38:47;;;;;;;16.10;10.40;;;5.60;83.50;;;;;;5058979;28;20089;-66
2020/12/12 11:48:38;;;;;;;19.42;11.07;;;5.50;83.40;;;;;;5065843;28;20467;-65
2020/12/12 11:51:03;;;;;;;15.75;9.68;;;5.60;83.50;;;;;;5064434;28;20040;-66
2020/12/12 11:53:29;;;;;;;19.30;11.00;;;5.60;83.50;;;;;;5062958;28;20086;-66
2020/12/12 11:55:55;;;;;;;16.45;10.40;;;5.50;83.40;;;;;;5068243;28;20025;-65
2020/12/12 11:58:20;;;;;;;20.92;10.63;;;5.60;83.50;;;;;;5067279;28;20093;-66
2020/12/12 12:00:46;;;;;;;18.90;12.25;;;5.50;83.50;;;;;;5067199;28;20037;-65
2020/12/12 12:03:12;;;;;;;25.17;15.55;;;5.50;83.50;;;;;;5067955;28;20034;-66
2020/12/12 12:05:41;;;;;;;21.85;12.68;;;5.50;83.70;;;;;;5064700;28;20648;-65
2020/12/12 12:08:13;;;;;;;19.83;12.20;;;5.50;83.70;;;;;;5067863;28;20028;-65
2020/12/12 12:10:43;;;;;;;14.90;10.18;;;5.50;83.80;;;;;;5064057;28;20507;-65
2020/12/12 12:13:08;;;;;;;15.48;9.88;;;5.50;83.80;;;;;;5067779;28;20028;-66
2020/12/12 12:15:34;;;;;;;16.80;10.57;;;5.50;83.90;;;;;;5064094;28;20025;-65
2020/12/12 12:17:59;;;;;;;17.52;10.77;;;5.50;84.00;;;;;;5067038;28;20444;-65
2020/12/12 12:20:25;;;;;;;17.27;10.65;;;5.50;84.00;;;;;;5065026;28;20028;-64
2020/12/12 12:22:54;;;;;;;19.25;11.50;;;5.50;84.10;;;;;;5054329;28;20900;-65
2020/12/12 12:25:19;;;;;;;17.63;11.02;;;5.50;84.40;;;;;;5059132;28;20035;-65
2020/12/12 12:27:45;;;;;;;15.10;9.95;;;5.60;84.40;;;;;;5064594;28;20029;-65
2020/12/12 12:30:10;;;;;;;20.98;12.50;;;5.60;84.30;;;;;;5062149;28;20032;-65
2020/12/12 12:32:36;;;;;;;16.50;10.98;;;5.60;84.20;;;;;;5065255;28;20174;-65
2020/12/12 12:35:03;;;;;;;16.73;10.60;;;5.60;84.20;;;;;;5063846;28;20052;-65
2020/12/12 12:37:30;;;;;;;17.20;10.93;;;5.70;84.20;;;;;;5066047;28;20039;-65
2020/12/12 12:39:56;;;;;;;18.77;11.68;;;5.70;84.10;;;;;;5066056;28;20029;-65
2020/12/12 12:42:22;;;;;;;19.05;12.32;;;5.70;84.00;;;;;;5066011;28;20510;-66
2020/12/12 12:44:47;;;;;;;22.25;13.93;;;5.70;84.00;;;;;;5065974;28;20036;-65
2020/12/12 12:47:13;;;;;;;18.67;12.43;;;5.70;84.10;;;;;;5067409;28;20037;-64